createdAt,value
2023-05-13T00:00:44.938Z,10.20
2023-05-13T00:03:12.575Z,14.80
2023-05-13T00:05:40.589Z,9.70
2023-05-13T00:08:08.217Z,14.50
2023-05-13T00:10:35.658Z,52.30
2023-05-13T00:13:02.915Z,13.50
2023-05-13T00:15:30.201Z,13.00
2023-05-13T00:17:57.658Z,11.40
2023-05-13T00:20:25.191Z,9.80
2023-05-13T00:22:52.536Z,11.70
2023-05-13T00:25:19.957Z,16.20
2023-05-13T00:27:47.120Z,12.50
2023-05-13T00:30:14.714Z,17.80
2023-05-13T00:32:42.303Z,12.80
2023-05-13T00:35:10.130Z,14.60
2023-05-13T00:37:37.852Z,12.60
2023-05-13T00:40:05.369Z,12.70
2023-05-13T00:42:32.811Z,17.50
2023-05-13T00:45:00.116Z,11.90
2023-05-13T00:47:27.591Z,7.10
2023-05-13T00:49:54.995Z,12.90
2023-05-13T00:52:22.425Z,10.20
2023-05-13T00:54:49.651Z,12.90
2023-05-13T00:57:17.006Z,9.50
2023-05-13T00:59:44.518Z,10.90
2023-05-13T01:02:24.549Z,10.20
2023-05-13T01:05:13.480Z,9.50
2023-05-13T01:07:49.144Z,11.30
2023-05-13T01:10:22.560Z,8.00
2023-05-13T01:12:51.457Z,15.70
2023-05-13T01:15:23.822Z,18.80
2023-05-13T01:18:07.895Z,13.00
2023-05-13T01:20:35.432Z,18.10
2023-05-13T01:23:04.400Z,21.70
2023-05-13T01:25:31.921Z,9.30
2023-05-13T01:27:59.253Z,19.90
2023-05-13T01:30:27.049Z,11.30
2023-05-13T01:32:54.594Z,36.70
2023-05-13T01:35:21.919Z,14.70
2023-05-13T01:37:50.394Z,17.40
2023-05-13T01:40:31.776Z,18.70
2023-05-13T01:43:02.673Z,15.50
2023-05-13T01:45:30.453Z,23.70
2023-05-13T01:47:58.397Z,18.30
2023-05-13T01:50:26.648Z,21.10
2023-05-13T01:52:54.233Z,25.70
2023-05-13T01:55:22.088Z,23.20
2023-05-13T01:57:49.994Z,27.30
2023-05-13T02:00:18.921Z,19.30
2023-05-13T02:02:49.349Z,15.10
2023-05-13T02:05:17.217Z,21.10
2023-05-13T02:07:45.102Z,34.30
2023-05-13T02:10:12.957Z,28.00
2023-05-13T02:12:40.533Z,30.20
2023-05-13T02:15:08.545Z,26.80
2023-05-13T02:17:35.992Z,28.50
2023-05-13T02:20:04.334Z,27.50
2023-05-13T02:22:31.858Z,36.90
2023-05-13T02:24:59.198Z,33.60
2023-05-13T02:27:27.150Z,36.30
2023-05-13T02:29:54.739Z,32.90
2023-05-13T02:32:22.511Z,22.70
2023-05-13T02:34:50.146Z,21.00
2023-05-13T02:37:17.568Z,18.20
2023-05-13T02:39:49.279Z,17.40
2023-05-13T02:42:18.171Z,22.50
2023-05-13T02:44:46.236Z,18.30
2023-05-13T02:47:13.877Z,23.20
2023-05-13T02:49:41.160Z,19.70
2023-05-13T02:52:08.600Z,28.10
2023-05-13T02:54:36.737Z,16.10
2023-05-13T02:57:04.701Z,14.00
2023-05-13T02:59:32.053Z,12.50
2023-05-13T03:01:59.540Z,16.40
2023-05-13T03:04:27.280Z,15.60
2023-05-13T03:06:54.769Z,14.60
2023-05-13T03:09:22.134Z,15.20
2023-05-13T03:11:49.382Z,13.10
2023-05-13T03:14:16.825Z,24.70
2023-05-13T03:16:45.086Z,20.20
2023-05-13T03:19:14.321Z,26.40
2023-05-13T03:21:41.926Z,26.60
2023-05-13T03:24:11.373Z,16.10
2023-05-13T03:26:38.801Z,35.00
2023-05-13T03:29:06.291Z,74.00
2023-05-13T03:31:35.037Z,73.60
2023-05-13T03:34:03.706Z,162.00
2023-05-13T03:36:32.704Z,157.20
2023-05-13T03:39:00.554Z,160.70
2023-05-13T03:41:28.500Z,208.60
2023-05-13T03:43:57.530Z,201.00
2023-05-13T03:46:27.558Z,152.10
2023-05-13T03:48:56.013Z,144.50
2023-05-13T03:51:23.665Z,161.90
2023-05-13T03:53:51.274Z,142.00
2023-05-13T03:56:18.763Z,126.70
2023-05-13T03:58:46.127Z,129.80
2023-05-13T04:01:13.396Z,104.10
2023-05-13T04:03:43.074Z,101.90
2023-05-13T04:06:10.374Z,99.50
2023-05-13T04:08:37.996Z,90.50
2023-05-13T04:11:05.284Z,110.80
2023-05-13T04:13:36.278Z,97.40
2023-05-13T04:16:04.080Z,116.40
2023-05-13T04:18:31.800Z,103.80
2023-05-13T04:20:59.235Z,121.90
2023-05-13T04:23:26.745Z,88.50
2023-05-13T04:25:54.189Z,90.10
2023-05-13T04:28:21.808Z,106.60
2023-05-13T04:30:50.581Z,82.50
2023-05-13T04:33:18.338Z,76.70
2023-05-13T04:35:48.124Z,109.60
2023-05-13T04:38:15.817Z,87.70
2023-05-13T04:40:44.663Z,104.50
2023-05-13T04:43:14.359Z,73.60
2023-05-13T04:45:48.029Z,117.40
2023-05-13T04:48:16.197Z,108.30
2023-05-13T04:50:47.183Z,127.00
2023-05-13T04:53:16.113Z,118.90
2023-05-13T04:55:48.091Z,126.80
2023-05-13T04:58:15.603Z,95.00
2023-05-13T05:00:43.099Z,76.20
2023-05-13T05:03:11.085Z,57.50
2023-05-13T05:05:40.323Z,46.00
2023-05-13T05:08:09.386Z,34.10
2023-05-13T05:10:37.865Z,44.50
2023-05-13T05:13:05.459Z,62.70
2023-05-13T05:15:33.796Z,108.80
2023-05-13T05:18:02.492Z,139.90
2023-05-13T05:20:31.280Z,187.60
2023-05-13T05:23:00.602Z,258.10
2023-05-13T05:25:29.641Z,244.90
2023-05-13T05:27:57.467Z,345.50
2023-05-13T05:30:26.286Z,235.40
2023-05-13T05:33:01.677Z,201.90
2023-05-13T05:35:29.472Z,189.00
2023-05-13T05:37:57.093Z,183.20
2023-05-13T05:40:25.266Z,154.70
2023-05-13T05:42:52.685Z,146.90
2023-05-13T05:45:20.911Z,107.00
2023-05-13T05:47:48.342Z,103.90
2023-05-13T05:50:16.853Z,72.60
2023-05-13T05:52:45.474Z,74.10
2023-05-13T05:55:14.004Z,107.50
2023-05-13T05:57:41.449Z,96.50
2023-05-13T06:00:10.638Z,100.40
2023-05-13T06:02:42.590Z,108.70
2023-05-13T06:05:10.618Z,108.10
2023-05-13T06:07:41.791Z,116.80
2023-05-13T06:10:09.892Z,101.70
2023-05-13T06:12:37.305Z,93.30
2023-05-13T06:15:06.774Z,87.30
2023-05-13T06:17:34.347Z,82.70
2023-05-13T06:20:01.866Z,100.50
2023-05-13T06:22:29.207Z,75.80
2023-05-13T06:24:56.666Z,78.20
2023-05-13T06:27:24.296Z,37.80
2023-05-13T06:29:51.753Z,43.90
2023-05-13T06:32:20.360Z,31.50
2023-05-13T06:34:48.732Z,42.50
2023-05-13T06:37:16.114Z,67.30
2023-05-13T06:39:44.007Z,85.00
2023-05-13T06:42:12.979Z,84.30
2023-05-13T06:44:46.503Z,45.00
2023-05-13T06:47:16.214Z,53.00
2023-05-13T06:49:44.707Z,48.30
2023-05-13T06:52:12.492Z,38.40
2023-05-13T06:54:40.792Z,36.40
2023-05-13T06:57:08.563Z,36.60
2023-05-13T06:59:36.255Z,29.60
2023-05-13T07:02:04.683Z,71.60
2023-05-13T07:04:32.323Z,52.60
2023-05-13T07:06:59.544Z,77.20
2023-05-13T07:09:27.620Z,84.60
2023-05-13T07:11:55.020Z,103.10
2023-05-13T07:14:22.454Z,84.70
2023-05-13T07:16:50.093Z,68.90
2023-05-13T07:19:17.662Z,82.00
2023-05-13T07:21:45.060Z,81.10
2023-05-13T07:24:12.572Z,109.50
2023-05-13T07:26:39.977Z,87.50
2023-05-13T07:29:07.569Z,69.40
2023-05-13T07:31:34.942Z,14.80
2023-05-13T07:34:02.346Z,9.50
2023-05-13T07:36:29.664Z,10.10
2023-05-13T07:38:57.050Z,33.60
2023-05-13T07:41:24.500Z,27.40
2023-05-13T07:43:52.104Z,30.60
2023-05-13T07:46:22.058Z,19.20
2023-05-13T07:48:49.572Z,16.10
2023-05-13T07:51:18.656Z,53.90
2023-05-13T07:53:47.453Z,85.70
2023-05-13T07:56:14.847Z,56.40
2023-05-13T07:58:42.313Z,72.40
2023-05-13T08:01:09.756Z,23.70
2023-05-13T08:03:37.467Z,27.00
2023-05-13T08:06:06.064Z,11.90
2023-05-13T08:08:33.472Z,23.40
2023-05-13T08:11:00.907Z,12.40
2023-05-13T08:13:28.282Z,27.20
2023-05-13T08:15:55.995Z,11.10
2023-05-13T08:18:23.598Z,21.10
2023-05-13T08:20:51.058Z,7.10
2023-05-13T08:23:18.293Z,5.30
2023-05-13T08:25:45.885Z,8.00
2023-05-13T08:28:13.394Z,7.70
2023-05-13T08:30:44.610Z,10.00
2023-05-13T08:33:12.273Z,8.70
2023-05-13T08:35:39.683Z,10.10
2023-05-13T08:38:07.011Z,8.60
2023-05-13T08:40:37.029Z,2.00
2023-05-13T08:43:05.103Z,5.80
2023-05-13T08:45:33.391Z,5.20
2023-05-13T08:50:29.771Z,5.00
2023-05-13T08:52:58.353Z,6.30
2023-05-13T08:55:25.760Z,24.60
2023-05-13T08:57:53.314Z,99.60
2023-05-13T09:00:21.872Z,153.20
2023-05-13T09:02:51.276Z,72.50
2023-05-13T09:05:18.828Z,147.80
2023-05-13T09:07:46.418Z,178.20
2023-05-13T09:10:13.861Z,39.00
2023-05-13T09:12:48.615Z,21.90
2023-05-13T09:15:17.913Z,6.30
2023-05-13T09:17:48.096Z,8.10
2023-05-13T09:20:16.867Z,107.60
2023-05-13T09:23:06.721Z,57.30
2023-05-13T09:25:34.272Z,28.00
2023-05-13T09:28:03.144Z,15.20
2023-05-13T09:30:32.987Z,31.80
2023-05-13T09:33:13.858Z,59.20
2023-05-13T09:35:45.366Z,17.70
2023-05-13T09:38:20.158Z,42.80
2023-05-13T09:41:02.171Z,214.40
2023-05-13T09:43:32.956Z,32.30
2023-05-13T09:46:04.548Z,14.30
2023-05-13T09:48:34.547Z,7.60
2023-05-13T09:51:01.530Z,8.10
2023-05-13T09:53:28.586Z,46.60
2023-05-13T09:55:59.140Z,35.10
2023-05-13T09:58:28.232Z,15.30
2023-05-13T10:00:57.092Z,6.10
2023-05-13T10:03:24.574Z,9.80
2023-05-13T10:05:52.708Z,7.90
2023-05-13T10:08:20.370Z,4.90
2023-05-13T10:10:47.854Z,8.70
2023-05-13T10:13:16.511Z,11.10
2023-05-13T10:15:51.375Z,13.30
2023-05-13T10:18:19.812Z,20.30
2023-05-13T10:20:47.584Z,8.70
2023-05-13T10:23:14.889Z,3.00
2023-05-13T10:25:42.390Z,5.00
2023-05-13T10:28:09.872Z,6.10
2023-05-13T10:30:37.261Z,10.90
2023-05-13T10:33:04.741Z,6.00
2023-05-13T10:35:37.535Z,10.20
2023-05-13T10:38:17.159Z,13.50
2023-05-13T10:40:53.983Z,18.40
2023-05-13T10:43:22.764Z,24.80
2023-05-13T10:45:51.561Z,21.90
2023-05-13T10:48:19.113Z,15.10
2023-05-13T10:50:56.497Z,17.20
2023-05-13T10:53:25.531Z,9.50
2023-05-13T10:55:54.699Z,3.90
2023-05-13T10:58:24.779Z,12.60
2023-05-13T11:00:52.368Z,23.30
2023-05-13T11:03:22.126Z,15.60
2023-05-13T11:06:29.204Z,12.80
2023-05-13T11:08:56.593Z,9.50
2023-05-13T11:11:33.370Z,11.10
2023-05-13T11:14:09.996Z,10.80
2023-05-13T11:16:37.929Z,13.40
2023-05-13T11:19:18.572Z,8.00
2023-05-13T11:21:55.062Z,14.00
2023-05-13T11:24:22.607Z,16.30
2023-05-13T11:26:57.421Z,7.40
2023-05-13T11:29:31.963Z,9.60
2023-05-13T11:32:00.816Z,24.30
2023-05-13T11:34:28.491Z,21.70
2023-05-13T11:37:05.298Z,23.80
2023-05-13T11:39:32.867Z,18.30
2023-05-13T11:42:01.962Z,9.60
2023-05-13T11:44:31.760Z,12.40
2023-05-13T11:47:06.444Z,15.20
2023-05-13T11:49:38.944Z,6.80
2023-05-13T11:52:09.038Z,26.60
2023-05-13T11:54:48.690Z,48.20
2023-05-13T11:57:26.445Z,30.40
2023-05-13T11:59:55.003Z,39.40
2023-05-13T12:02:26.784Z,24.10
2023-05-13T12:04:54.398Z,17.60
2023-05-13T12:07:25.117Z,31.50
2023-05-13T12:09:54.344Z,28.30
2023-05-13T12:12:21.917Z,41.10
2023-05-13T12:14:53.224Z,12.20
2023-05-13T12:17:20.815Z,13.70
2023-05-13T12:20:07.479Z,39.10
2023-05-13T12:22:35.842Z,16.10
2023-05-13T12:25:42.396Z,6.50
2023-05-13T12:28:45.211Z,8.60
2023-05-13T12:31:16.386Z,7.60
2023-05-13T12:33:44.499Z,2.50
2023-05-13T12:36:21.375Z,2.90
2023-05-13T12:39:07.472Z,3.70
2023-05-13T12:41:36.406Z,10.40
2023-05-13T12:44:10.187Z,9.50
2023-05-13T12:46:37.909Z,12.00
2023-05-13T12:49:06.254Z,13.20
2023-05-13T12:51:34.087Z,5.80
2023-05-13T12:54:01.928Z,7.40
2023-05-13T12:56:29.286Z,4.60
2023-05-13T12:58:56.729Z,12.00
2023-05-13T13:01:24.134Z,7.20
2023-05-13T13:03:51.807Z,5.00
2023-05-13T13:06:19.365Z,7.20
2023-05-13T13:08:46.819Z,3.80
2023-05-13T13:11:20.364Z,8.60
2023-05-13T13:13:48.487Z,6.90
2023-05-13T13:16:15.796Z,23.20
2023-05-13T13:18:43.242Z,11.00
2023-05-13T13:21:10.778Z,12.20
2023-05-13T13:23:38.438Z,13.50
2023-05-13T13:26:05.973Z,5.30
2023-05-13T13:28:33.728Z,12.60
2023-05-13T13:31:01.318Z,5.40
2023-05-13T13:33:28.910Z,16.30
2023-05-13T13:35:56.413Z,4.10
2023-05-13T13:38:23.851Z,3.60
2023-05-13T13:40:51.339Z,9.00
2023-05-13T13:43:19.750Z,35.40
2023-05-13T13:45:47.181Z,19.70
2023-05-13T13:48:14.648Z,25.90
2023-05-13T13:50:42.020Z,9.50
2023-05-13T13:53:09.376Z,18.90
2023-05-13T13:55:36.686Z,19.10
2023-05-13T13:58:04.550Z,11.30
2023-05-13T14:00:32.045Z,31.20
2023-05-13T14:02:59.602Z,56.40
2023-05-13T14:05:27.101Z,12.80
2023-05-13T14:07:56.054Z,20.10
2023-05-13T14:10:23.636Z,15.00
2023-05-13T14:12:51.230Z,8.60
2023-05-13T14:15:18.597Z,10.20
2023-05-13T14:17:45.958Z,3.90
2023-05-13T14:20:13.422Z,31.90
2023-05-13T14:22:40.906Z,13.80
2023-05-13T14:25:09.514Z,9.70
2023-05-13T14:27:36.965Z,5.60
2023-05-13T14:30:05.606Z,15.10
2023-05-13T14:32:33.902Z,8.40
2023-05-13T14:35:01.389Z,2.40
2023-05-13T14:37:28.874Z,14.50
2023-05-13T14:39:56.295Z,2.80
2023-05-13T14:42:23.737Z,11.70
2023-05-13T14:44:51.167Z,12.90
2023-05-13T14:47:19.629Z,9.40
2023-05-13T14:49:47.054Z,7.80
2023-05-13T14:52:14.353Z,13.00
2023-05-13T14:54:41.630Z,2.50
2023-05-13T14:57:08.951Z,9.30
2023-05-13T14:59:36.343Z,9.30
2023-05-13T15:02:03.971Z,4.90
2023-05-13T15:04:31.355Z,7.60
2023-05-13T15:06:59.450Z,6.70
2023-05-13T15:09:27.062Z,2.60
2023-05-13T15:11:54.445Z,14.40
2023-05-13T15:14:25.985Z,19.50
2023-05-13T15:16:53.761Z,10.40
2023-05-13T15:19:21.224Z,10.60
2023-05-13T15:21:48.631Z,17.00
2023-05-13T15:24:16.061Z,30.50
2023-05-13T15:26:43.641Z,28.60
2023-05-13T15:29:11.018Z,21.80
2023-05-13T15:31:38.378Z,26.00
2023-05-13T15:34:06.022Z,23.10
2023-05-13T15:36:34.606Z,14.90
2023-05-13T15:39:02.747Z,8.40
2023-05-13T15:41:30.416Z,6.30
2023-05-13T15:43:57.758Z,5.50
2023-05-13T15:46:25.939Z,6.10
2023-05-13T15:48:53.439Z,9.00
2023-05-13T15:51:21.376Z,24.00
2023-05-13T15:53:48.856Z,3.80
2023-05-13T15:56:16.107Z,5.60
2023-05-13T15:58:43.484Z,14.10
2023-05-13T16:01:11.214Z,11.20
2023-05-13T16:03:38.836Z,10.10
